createdAt,value
2022-08-18T00:02:07.259Z,18.02
2022-08-18T00:04:48.663Z,19.95
2022-08-18T00:07:22.648Z,21.60
2022-08-18T00:09:49.842Z,20.88
2022-08-18T00:12:18.620Z,20.90
2022-08-18T00:14:46.396Z,18.88
2022-08-18T00:17:13.950Z,19.13
2022-08-18T00:19:47.066Z,18.85
2022-08-18T00:22:20.837Z,19.70
2022-08-18T00:24:51.988Z,19.92
2022-08-18T00:27:23.712Z,20.50
2022-08-18T00:29:57.449Z,18.83
2022-08-18T00:32:30.231Z,17.77
2022-08-18T00:34:56.882Z,17.80
2022-08-18T00:37:24.339Z,17.00
2022-08-18T00:39:53.502Z,18.48
2022-08-18T00:42:30.636Z,18.73
2022-08-18T00:45:01.596Z,19.00
2022-08-18T00:47:41.913Z,19.50
2022-08-18T00:50:22.798Z,19.00
2022-08-18T00:52:57.418Z,21.33
2022-08-18T00:55:25.278Z,21.50
2022-08-18T00:57:55.887Z,21.60
2022-08-18T01:00:22.900Z,22.17
2022-08-18T01:02:59.031Z,21.83
2022-08-18T01:05:43.333Z,21.08
2022-08-18T01:08:17.184Z,23.02
2022-08-18T01:10:55.614Z,24.48
2022-08-18T01:13:27.719Z,23.23
2022-08-18T01:15:54.378Z,21.90
2022-08-18T01:18:39.917Z,22.40
2022-08-18T01:21:34.647Z,22.08
2022-08-18T01:24:05.578Z,21.27
2022-08-18T01:26:45.601Z,20.60
2022-08-18T01:29:18.655Z,19.25
2022-08-18T01:31:55.709Z,19.95
2022-08-18T01:34:25.907Z,18.58
2022-08-18T01:36:54.238Z,20.08
2022-08-18T01:41:25.812Z,19.60
2022-08-18T01:42:09.747Z,20.15
2022-08-18T01:44:36.765Z,20.63
2022-08-18T01:47:03.599Z,19.17
2022-08-18T01:49:30.295Z,19.58
2022-08-18T01:51:56.919Z,19.27
2022-08-18T01:54:23.543Z,19.38
2022-08-18T01:56:50.245Z,20.30
2022-08-18T01:59:17.292Z,20.63
2022-08-18T02:01:50.349Z,19.50
2022-08-18T02:04:36.129Z,19.95
2022-08-18T02:07:09.233Z,19.58
2022-08-18T02:09:38.523Z,20.05
2022-08-18T02:12:07.621Z,19.48
2022-08-18T02:14:35.754Z,18.25
2022-08-18T02:17:04.942Z,18.58
2022-08-18T02:19:43.991Z,18.23
2022-08-18T02:22:13.975Z,18.75
2022-08-18T02:24:40.939Z,19.38
2022-08-18T02:27:09.044Z,20.92
2022-08-18T02:29:36.892Z,20.13
2022-08-18T02:32:04.526Z,20.58
2022-08-18T02:34:31.195Z,21.58
2022-08-18T02:37:00.117Z,22.30
2022-08-18T02:39:27.656Z,22.70
2022-08-18T02:41:54.339Z,23.50
2022-08-18T02:44:21.069Z,24.63
2022-08-18T02:46:52.680Z,25.73
2022-08-18T02:49:19.445Z,23.65
2022-08-18T02:51:46.400Z,21.27
2022-08-18T02:54:13.055Z,19.92
2022-08-18T02:56:42.097Z,20.08
2022-08-18T02:59:27.651Z,19.48
2022-08-18T03:01:56.220Z,20.35
2022-08-18T03:04:29.630Z,20.45
2022-08-18T03:06:59.791Z,19.05
2022-08-18T03:09:27.114Z,18.98
2022-08-18T03:11:54.600Z,18.65
2022-08-18T03:14:22.062Z,18.67
2022-08-18T03:16:54.119Z,20.95
2022-08-18T03:19:25.706Z,21.73
2022-08-18T03:21:52.932Z,23.55
2022-08-18T03:24:22.910Z,23.05
2022-08-18T03:26:51.691Z,23.63
2022-08-18T03:29:18.746Z,21.77
2022-08-18T03:31:45.672Z,20.50
2022-08-18T03:34:12.809Z,21.02
2022-08-18T03:36:39.886Z,21.13
2022-08-18T03:39:10.149Z,19.63
2022-08-18T03:41:43.878Z,20.15
2022-08-18T03:44:27.870Z,19.75
2022-08-18T03:46:54.468Z,20.02
2022-08-18T03:49:21.086Z,19.25
2022-08-18T03:51:48.707Z,20.10
2022-08-18T03:54:18.360Z,21.25
2022-08-18T03:56:46.715Z,22.83
2022-08-18T03:59:19.748Z,23.13
2022-08-18T04:01:48.259Z,21.40
2022-08-18T04:04:19.097Z,18.95
2022-08-18T04:06:55.703Z,19.73
2022-08-18T04:09:24.629Z,19.50
2022-08-18T04:11:52.047Z,20.75
2022-08-18T04:14:24.079Z,20.20
2022-08-18T04:16:51.050Z,21.10
2022-08-18T04:19:26.536Z,21.00
2022-08-18T04:21:58.185Z,21.95
2022-08-18T04:24:28.221Z,21.98
2022-08-18T04:26:59.735Z,20.17
2022-08-18T04:29:26.769Z,20.90
2022-08-18T04:31:53.405Z,19.75
2022-08-18T04:34:21.287Z,19.65
2022-08-18T04:36:48.236Z,21.60
2022-08-18T04:39:15.745Z,22.10
2022-08-18T04:41:44.044Z,21.33
2022-08-18T04:44:12.642Z,21.20
2022-08-18T04:46:47.593Z,21.17
2022-08-18T04:49:16.119Z,19.75
2022-08-18T04:52:34.312Z,21.55
2022-08-18T04:54:54.854Z,20.15
2022-08-18T04:57:22.911Z,22.27
2022-08-18T04:59:52.202Z,21.50
2022-08-18T05:02:21.431Z,22.15
2022-08-18T05:04:48.779Z,22.23
2022-08-18T05:07:18.929Z,21.40
2022-08-18T05:09:46.450Z,22.27
2022-08-18T05:12:15.021Z,21.70
2022-08-18T05:14:44.668Z,22.55
2022-08-18T05:17:12.755Z,25.25
2022-08-18T05:19:42.373Z,25.25
2022-08-18T05:22:11.100Z,25.58
2022-08-18T05:24:39.606Z,23.13
2022-08-18T05:27:07.580Z,20.75
2022-08-18T05:29:41.718Z,22.33
2022-08-18T05:32:37.148Z,21.15
2022-08-18T05:35:05.148Z,22.23
2022-08-18T05:37:44.118Z,24.50
2022-08-18T05:40:11.816Z,27.38
2022-08-18T05:42:40.393Z,27.52
2022-08-18T05:45:12.938Z,27.52
2022-08-18T05:47:39.630Z,32.53
2022-08-18T05:50:10.591Z,30.73
2022-08-18T05:52:50.604Z,32.95
2022-08-18T05:55:47.921Z,33.30
2022-08-18T05:58:33.556Z,32.13
2022-08-18T06:01:23.819Z,28.77
2022-08-18T06:03:56.703Z,29.15
2022-08-18T06:06:29.514Z,27.63
2022-08-18T06:09:19.859Z,34.05
2022-08-18T06:11:47.251Z,34.05
2022-08-18T06:14:13.953Z,33.65
2022-08-18T06:16:58.433Z,35.00
2022-08-18T06:19:43.636Z,37.70
2022-08-18T06:22:23.250Z,35.53
2022-08-18T06:25:02.422Z,35.30
2022-08-18T06:27:55.852Z,35.92
2022-08-18T06:30:45.583Z,37.83
2022-08-18T06:33:34.867Z,32.97
2022-08-18T06:36:37.350Z,31.67
2022-08-18T06:39:26.359Z,31.40
2022-08-18T06:41:53.855Z,33.80
2022-08-18T06:44:43.941Z,35.67
2022-08-18T06:47:20.949Z,35.38
2022-08-18T06:50:03.228Z,38.75
2022-08-18T06:52:33.890Z,36.38
2022-08-18T06:55:15.988Z,39.40
2022-08-18T06:57:58.612Z,39.92
2022-08-18T07:00:32.730Z,40.95
2022-08-18T07:03:02.663Z,39.95
2022-08-18T07:05:31.761Z,38.53
2022-08-18T07:08:15.997Z,39.42
2022-08-18T07:10:52.121Z,40.85
2022-08-18T07:13:27.760Z,40.30
2022-08-18T07:16:15.895Z,40.17
2022-08-18T07:18:45.430Z,42.88
2022-08-18T07:21:25.424Z,41.50
2022-08-18T07:24:23.247Z,43.47
2022-08-18T07:27:18.738Z,41.25
2022-08-18T07:30:28.772Z,40.60
2022-08-18T07:33:04.723Z,43.85
2022-08-18T07:35:43.078Z,48.35
2022-08-18T07:38:41.494Z,47.38
2022-08-18T07:41:16.567Z,48.92
2022-08-18T07:43:51.331Z,52.78
2022-08-18T07:46:43.501Z,51.25
2022-08-18T07:49:18.235Z,52.83
2022-08-18T07:51:56.754Z,55.88
2022-08-18T07:54:48.878Z,58.38
2022-08-18T07:57:27.360Z,56.22
2022-08-18T08:00:35.020Z,57.33
2022-08-18T08:03:22.934Z,58.75
2022-08-18T08:07:06.475Z,60.50
2022-08-18T08:09:59.018Z,54.83
2022-08-18T08:13:06.102Z,60.88
2022-08-18T08:15:50.651Z,58.92
2022-08-18T08:18:52.477Z,60.88
2022-08-18T08:21:21.975Z,59.88
2022-08-18T08:24:09.471Z,58.10
2022-08-18T08:27:07.271Z,57.85
2022-08-18T08:29:46.156Z,56.03
2022-08-18T08:32:19.437Z,55.83
2022-08-18T08:35:47.146Z,54.63
2022-08-18T08:38:23.230Z,53.53
2022-08-18T08:41:03.482Z,52.75
2022-08-18T08:43:34.548Z,49.15
2022-08-18T08:46:15.769Z,50.28
2022-08-18T08:49:03.224Z,48.47
2022-08-18T08:51:32.719Z,52.33
2022-08-18T08:54:08.183Z,44.03
2022-08-18T08:56:40.712Z,45.28
2022-08-18T08:59:11.015Z,44.97
2022-08-18T09:01:40.676Z,45.00
2022-08-18T09:04:34.576Z,42.42
2022-08-18T09:07:25.763Z,43.85
2022-08-18T09:10:21.037Z,43.30
2022-08-18T09:13:06.459Z,41.65
2022-08-18T09:16:12.355Z,40.15
2022-08-18T09:19:01.766Z,37.75
2022-08-18T09:21:46.782Z,38.25
2022-08-18T09:24:27.319Z,38.03
2022-08-18T09:27:18.984Z,38.72
2022-08-18T09:29:58.443Z,37.83
2022-08-18T09:32:26.045Z,40.38
2022-08-18T09:35:11.447Z,35.05
2022-08-18T09:38:28.545Z,39.15
2022-08-18T09:41:18.803Z,38.10
2022-08-18T09:44:12.051Z,34.83
2022-08-18T09:46:48.361Z,36.50
2022-08-18T09:49:26.527Z,33.95
2022-08-18T09:55:30.743Z,31.95
2022-08-18T09:58:26.167Z,31.33
2022-08-18T10:01:37.219Z,34.13
2022-08-18T10:07:38.880Z,31.23
2022-08-18T10:10:59.934Z,30.17
2022-08-18T10:13:48.872Z,32.97
2022-08-18T10:17:13.141Z,30.88
2022-08-18T10:19:52.993Z,27.25
2022-08-18T10:22:43.202Z,26.50
2022-08-18T10:25:23.114Z,27.42
2022-08-18T10:27:54.882Z,26.35
2022-08-18T10:30:34.593Z,25.33
2022-08-18T10:33:17.702Z,27.00
2022-08-18T10:36:02.281Z,27.20
2022-08-18T10:38:47.844Z,27.40
2022-08-18T10:41:23.153Z,30.77
2022-08-18T10:43:55.838Z,26.80
2022-08-18T10:46:31.943Z,27.48
2022-08-18T10:49:17.488Z,25.88
2022-08-18T10:51:59.300Z,29.00
2022-08-18T10:54:56.151Z,26.80
2022-08-18T10:57:25.804Z,28.80
2022-08-18T11:00:02.717Z,26.17
2022-08-18T11:03:50.504Z,27.48
2022-08-18T11:09:00.292Z,26.13
2022-08-18T11:11:52.849Z,29.25
2022-08-18T11:14:41.902Z,28.13
2022-08-18T11:17:54.646Z,32.70
2022-08-18T11:20:27.171Z,29.48
2022-08-18T11:23:00.125Z,30.38
2022-08-18T11:25:36.511Z,34.42
2022-08-18T11:28:14.257Z,29.58
2022-08-18T11:30:49.041Z,32.53
2022-08-18T11:33:23.186Z,32.72
2022-08-18T11:36:01.480Z,31.23
2022-08-18T11:38:31.248Z,30.38
2022-08-18T11:41:18.978Z,31.48
2022-08-18T11:43:48.361Z,30.70
2022-08-18T11:46:27.664Z,28.85
2022-08-18T11:48:55.064Z,29.10
2022-08-18T11:51:27.012Z,29.15
2022-08-18T11:54:19.193Z,28.95
2022-08-18T11:56:45.894Z,27.50
2022-08-18T11:59:53.195Z,29.77
2022-08-18T12:02:21.795Z,28.33
2022-08-18T12:04:55.071Z,28.88
2022-08-18T12:07:37.141Z,29.90
2022-08-18T12:10:19.993Z,28.00
2022-08-18T12:12:54.056Z,29.15
2022-08-18T12:15:44.131Z,25.33
2022-08-18T12:21:05.419Z,26.27
2022-08-18T12:23:44.403Z,30.40
2022-08-18T12:26:26.895Z,29.80
2022-08-18T12:29:02.093Z,30.42
2022-08-18T12:31:42.596Z,31.52
2022-08-18T12:34:14.951Z,30.42
2022-08-18T12:36:42.432Z,30.55
2022-08-18T12:39:10.359Z,30.55
2022-08-18T12:41:37.654Z,31.60
2022-08-18T12:44:04.608Z,29.20
2022-08-18T12:46:42.880Z,32.10
2022-08-18T12:49:35.957Z,28.33
2022-08-18T12:52:04.699Z,27.15
2022-08-18T12:54:32.804Z,28.98
2022-08-18T12:57:01.176Z,34.15
2022-08-18T12:59:33.101Z,33.92
2022-08-18T13:02:04.621Z,30.50
2022-08-18T13:04:31.190Z,29.92
2022-08-18T13:07:01.868Z,30.13
2022-08-18T13:09:35.252Z,30.23
2022-08-18T13:12:16.597Z,26.63
2022-08-18T13:14:44.127Z,26.25
2022-08-18T13:17:30.158Z,28.77
2022-08-18T13:19:59.583Z,29.23
2022-08-18T13:22:32.734Z,26.92
2022-08-18T13:25:05.353Z,29.05
2022-08-18T13:27:35.546Z,31.00
2022-08-18T13:30:16.714Z,29.33
2022-08-18T13:33:00.315Z,28.92
2022-08-18T13:35:38.141Z,29.58
2022-08-18T13:38:21.974Z,24.20
2022-08-18T13:40:54.922Z,26.33
2022-08-18T13:43:32.190Z,29.95
2022-08-18T13:45:59.857Z,28.88
2022-08-18T13:48:28.390Z,29.48
2022-08-18T13:50:59.953Z,28.20
2022-08-18T13:53:29.577Z,29.50
2022-08-18T13:55:59.054Z,31.55
2022-08-18T13:58:27.173Z,29.10
2022-08-18T14:01:22.664Z,29.58
2022-08-18T14:03:47.476Z,27.98
2022-08-18T14:06:15.808Z,28.63
2022-08-18T14:08:49.636Z,31.20
2022-08-18T14:11:17.267Z,28.33
2022-08-18T14:13:44.473Z,26.70
2022-08-18T14:16:18.438Z,27.20
2022-08-18T14:19:09.683Z,26.73
2022-08-18T14:22:00.952Z,27.42
2022-08-18T14:24:48.876Z,25.98
2022-08-18T14:27:35.851Z,25.95
2022-08-18T14:30:13.889Z,24.70
2022-08-18T14:32:48.897Z,24.77
2022-08-18T14:36:04.431Z,26.77
2022-08-18T14:38:04.032Z,27.00
2022-08-18T14:40:33.347Z,28.52
2022-08-18T14:43:01.971Z,26.23
2022-08-18T14:45:35.196Z,25.92
2022-08-18T14:48:07.367Z,25.45
2022-08-18T14:50:39.163Z,24.85
2022-08-18T14:53:06.665Z,26.23
2022-08-18T14:55:34.253Z,25.60
2022-08-18T14:58:01.226Z,25.40
2022-08-18T15:00:28.601Z,28.13
2022-08-18T15:02:57.443Z,27.17
2022-08-18T15:05:31.757Z,26.90
2022-08-18T15:08:03.687Z,26.42
2022-08-18T15:10:31.563Z,26.73
2022-08-18T15:13:00.576Z,27.23
2022-08-18T15:15:28.560Z,24.88
2022-08-18T15:18:15.515Z,24.95
2022-08-18T15:21:10.297Z,23.42
2022-08-18T15:24:04.969Z,25.80
2022-08-18T15:26:42.499Z,24.48
2022-08-18T15:29:10.927Z,25.70
2022-08-18T15:32:02.375Z,25.80
2022-08-18T15:34:28.722Z,26.33
2022-08-18T15:36:57.042Z,27.30
2022-08-18T15:39:25.356Z,26.33
2022-08-18T15:41:56.259Z,25.58
2022-08-18T15:44:23.023Z,27.38
2022-08-18T15:46:53.106Z,26.23
2022-08-18T15:49:21.823Z,25.60
2022-08-18T15:51:50.030Z,24.13
2022-08-18T15:54:19.531Z,26.02
2022-08-18T15:56:57.641Z,23.95
2022-08-18T15:59:41.253Z,23.83
2022-08-18T16:02:11.467Z,23.75
2022-08-18T16:04:41.225Z,26.48
2022-08-18T16:07:09.986Z,24.95
2022-08-18T16:09:36.883Z,24.95
2022-08-18T16:12:03.839Z,24.40
2022-08-18T16:14:31.557Z,25.27
2022-08-18T16:16:58.152Z,24.27
2022-08-18T16:19:25.695Z,23.80
2022-08-18T16:21:55.096Z,23.83
2022-08-18T16:24:21.874Z,23.70
2022-08-18T16:26:48.440Z,22.20
2022-08-18T16:29:15.144Z,22.48
2022-08-18T16:31:41.775Z,22.77
2022-08-18T16:34:09.463Z,22.00
2022-08-18T16:36:36.323Z,22.83
2022-08-18T16:39:03.277Z,19.67
2022-08-18T16:41:31.867Z,20.48
2022-08-18T16:43:58.489Z,21.30
2022-08-18T16:46:27.614Z,21.08
2022-08-18T16:48:55.810Z,22.55
2022-08-18T16:51:25.307Z,22.15
2022-08-18T16:53:53.449Z,21.17
2022-08-18T16:56:23.363Z,22.45
2022-08-18T16:59:18.051Z,22.23
2022-08-18T17:02:03.056Z,23.35
2022-08-18T17:04:34.626Z,23.80
2022-08-18T17:07:05.784Z,25.00
2022-08-18T17:09:33.466Z,25.35
2022-08-18T17:12:01.307Z,24.50
2022-08-18T17:14:30.075Z,23.40
2022-08-18T17:16:58.434Z,24.15
2022-08-18T17:19:29.977Z,25.92
2022-08-18T17:21:56.932Z,25.17
2022-08-18T17:24:31.150Z,23.05
2022-08-18T17:27:26.676Z,23.85
2022-08-18T17:30:18.015Z,23.73
2022-08-18T17:32:54.361Z,24.13
2022-08-18T17:35:29.414Z,22.42
2022-08-18T17:38:19.559Z,23.75
2022-08-18T17:40:52.983Z,22.60
2022-08-18T17:43:22.967Z,21.85
2022-08-18T17:45:57.174Z,22.05
2022-08-18T17:48:37.723Z,22.30
2022-08-18T17:51:30.609Z,22.20
2022-08-18T17:54:09.714Z,21.02
2022-08-18T17:56:42.614Z,22.50
2022-08-18T17:59:45.959Z,22.17
2022-08-18T18:02:19.009Z,21.75
2022-08-18T18:04:55.779Z,23.00
2022-08-18T18:07:33.832Z,22.95
2022-08-18T18:10:10.912Z,22.25
2022-08-18T18:12:38.694Z,24.45
2022-08-18T18:15:10.089Z,23.17
2022-08-18T18:17:39.599Z,23.50
2022-08-18T18:20:24.861Z,22.58
2022-08-18T18:22:52.171Z,24.08
2022-08-18T18:25:34.589Z,23.83
2022-08-18T18:28:02.122Z,24.52
2022-08-18T18:30:32.852Z,24.67
2022-08-18T18:33:02.601Z,24.23
2022-08-18T18:35:53.319Z,23.13
2022-08-18T18:38:35.280Z,23.23
2022-08-18T18:41:06.821Z,24.98
2022-08-18T18:43:47.387Z,24.65
2022-08-18T18:46:18.365Z,23.02
2022-08-18T18:49:15.803Z,24.00
2022-08-18T18:52:13.219Z,23.08
2022-08-18T18:54:54.642Z,22.50
2022-08-18T18:57:40.344Z,21.92
2022-08-18T19:00:21.064Z,24.27
2022-08-18T19:02:47.705Z,24.08
2022-08-18T19:05:20.667Z,23.70
2022-08-18T19:07:59.310Z,23.85
2022-08-18T19:10:37.478Z,24.00
2022-08-18T19:13:08.418Z,22.85
2022-08-18T19:15:38.375Z,23.52
2022-08-18T19:18:21.741Z,22.52
2022-08-18T19:22:02.297Z,23.00
2022-08-18T19:23:46.310Z,24.38
2022-08-18T19:26:22.713Z,23.23
2022-08-18T19:29:12.452Z,22.83
2022-08-18T19:31:47.182Z,22.77
2022-08-18T19:34:31.493Z,23.48
2022-08-18T19:37:01.580Z,23.88
2022-08-18T19:39:45.971Z,22.80
2022-08-18T19:42:51.811Z,22.63
2022-08-18T19:45:32.771Z,24.00
2022-08-18T19:48:11.603Z,23.27
2022-08-18T19:50:43.213Z,22.80
2022-08-18T19:53:14.492Z,25.45
2022-08-18T19:56:02.314Z,23.17
2022-08-18T19:59:17.076Z,24.20
2022-08-18T20:02:35.078Z,23.50
2022-08-18T20:05:32.753Z,23.42
2022-08-18T20:08:32.167Z,23.85
2022-08-18T20:11:41.916Z,23.15
2022-08-18T20:14:17.113Z,23.02
2022-08-18T20:17:12.804Z,23.55
2022-08-18T20:19:46.912Z,23.77
2022-08-18T20:22:21.914Z,24.42
2022-08-18T20:25:13.823Z,24.17
2022-08-18T20:27:49.393Z,23.00
2022-08-18T20:30:29.714Z,22.58
2022-08-18T20:33:29.160Z,24.73
2022-08-18T20:36:07.991Z,23.92
2022-08-18T20:38:45.638Z,22.58
2022-08-18T20:41:34.029Z,24.55
2022-08-18T20:44:29.344Z,24.45
2022-08-18T20:47:11.220Z,24.65
2022-08-18T20:49:59.967Z,24.42
2022-08-18T20:52:56.219Z,23.10
2022-08-18T20:55:41.085Z,24.17
2022-08-18T20:58:15.662Z,22.98
2022-08-18T21:00:47.788Z,23.50
2022-08-18T21:03:16.754Z,24.42
2022-08-18T21:05:45.298Z,24.17
2022-08-18T21:08:16.422Z,25.02
2022-08-18T21:10:59.787Z,24.33
2022-08-18T21:13:51.400Z,24.67
2022-08-18T21:16:38.698Z,23.67
2022-08-18T21:19:08.721Z,24.58
2022-08-18T21:21:39.584Z,23.65
2022-08-18T21:24:18.176Z,25.20
2022-08-18T21:26:48.109Z,24.23
2022-08-18T21:29:16.387Z,23.65
2022-08-18T21:31:45.469Z,24.88
2022-08-18T21:34:14.184Z,25.33
2022-08-18T21:36:53.536Z,25.63
2022-08-18T21:39:21.453Z,25.40
2022-08-18T21:41:52.605Z,25.73
2022-08-18T21:44:27.308Z,24.38
2022-08-18T21:47:14.404Z,24.05
2022-08-18T21:50:17.214Z,25.60
2022-08-18T21:52:56.083Z,25.17
2022-08-18T21:55:36.892Z,23.60
2022-08-18T21:58:18.435Z,24.50
2022-08-18T22:01:06.067Z,24.73
2022-08-18T22:03:34.379Z,24.52
2022-08-18T22:06:16.243Z,24.02
2022-08-18T22:09:21.902Z,24.30
2022-08-18T22:12:07.370Z,23.55
2022-08-18T22:14:54.636Z,24.15
2022-08-18T22:17:35.053Z,23.08
2022-08-18T22:20:50.067Z,23.08
2022-08-18T22:23:35.427Z,24.38
2022-08-18T22:26:12.345Z,22.85
2022-08-18T22:29:20.267Z,23.15
2022-08-18T22:31:49.880Z,23.27
2022-08-18T22:34:28.395Z,23.15
2022-08-18T22:37:04.040Z,23.08
2022-08-18T22:39:53.903Z,22.25
2022-08-18T22:42:24.390Z,23.40
2022-08-18T22:44:51.272Z,22.95
2022-08-18T22:47:18.353Z,23.33
2022-08-18T22:49:45.972Z,23.00
2022-08-18T22:52:15.551Z,23.02
2022-08-18T22:54:42.131Z,23.42
2022-08-18T22:57:10.428Z,22.45
2022-08-18T22:59:37.563Z,23.52
2022-08-18T23:02:10.532Z,23.40
2022-08-18T23:04:37.262Z,23.35
2022-08-18T23:07:03.937Z,22.92
2022-08-18T23:09:33.345Z,23.30
2022-08-18T23:12:06.986Z,22.50
2022-08-18T23:14:34.723Z,23.25
2022-08-18T23:17:02.271Z,22.50
2022-08-18T23:19:31.466Z,23.35
2022-08-18T23:22:02.772Z,23.08
2022-08-18T23:24:29.711Z,23.67
2022-08-18T23:26:57.365Z,24.05
2022-08-18T23:29:23.994Z,22.08
2022-08-18T23:31:51.707Z,22.45
2022-08-18T23:34:22.881Z,22.30
2022-08-18T23:36:56.804Z,23.92
2022-08-18T23:39:25.434Z,22.92
2022-08-18T23:41:53.597Z,22.30
2022-08-18T23:44:22.490Z,21.92
2022-08-18T23:46:54.151Z,21.45
2022-08-18T23:49:20.937Z,22.35
2022-08-18T23:51:50.951Z,22.17
2022-08-18T23:54:25.531Z,21.77
2022-08-18T23:56:52.101Z,21.88
2022-08-18T23:59:20.970Z,21.88
